Time;durP1;ratioP1;P1;durP2;ratioP2;P2;SDS_P1;SDS_P2;PMS_P1;PMS_P2;Temp;Humidity;BMP_temperature;BMP_pressure;BME280_temperature;BME280_humidity;BME280_pressure;Samples;Min_cycle;Max_cycle;Signal;HPM_P1;HPM_P2
2023/06/16 00:01:38;;;;;;;12.70;3.97;;;;;;;18.20;100.00;101395.13;4952100;28;20465;-72
2023/06/16 00:04:05;;;;;;;9.55;4.10;;;;;;;18.20;100.00;101395.13;4952798;28;20492;-72
2023/06/16 00:06:32;;;;;;;11.05;3.92;;;;;;;18.16;100.00;101388.81;4955402;28;20059;-72
2023/06/16 00:09:00;;;;;;;9.82;4.47;;;;;;;18.13;100.00;101398.16;4950021;28;20043;-68
2023/06/16 00:11:27;;;;;;;11.45;4.78;;;;;;;18.04;100.00;101386.81;4948107;28;20739;-72
2023/06/16 00:13:55;;;;;;;11.93;4.30;;;;;;;18.02;100.00;101392.13;4953622;28;20138;-72
2023/06/16 00:16:23;;;;;;;9.13;4.18;;;;;;;17.93;100.00;101391.97;4952655;28;20097;-72
2023/06/16 00:18:57;;;;;;;14.38;5.15;;;;;;;17.88;100.00;101392.53;4942688;28;20083;-72
2023/06/16 00:21:26;;;;;;;9.25;4.15;;;;;;;17.82;100.00;101392.31;4951438;28;20055;-72
2023/06/16 00:23:56;;;;;;;10.77;4.28;;;;;;;17.75;100.00;101398.16;4950130;28;20055;-72
2023/06/16 00:26:30;;;;;;;11.50;4.55;;;;;;;17.68;100.00;101401.22;4954486;28;20063;-71
2023/06/16 00:29:02;;;;;;;9.38;4.18;;;;;;;17.60;100.00;101401.88;4954871;28;20578;-71
2023/06/16 00:31:31;;;;;;;11.68;4.53;;;;;;;17.54;100.00;101404.47;4951997;28;20054;-71
2023/06/16 00:33:59;;;;;;;9.88;4.40;;;;;;;17.50;100.00;101400.19;4939550;28;20079;-73
2023/06/16 00:36:26;;;;;;;12.43;4.57;;;;;;;17.44;100.00;101402.78;4980053;28;20126;-71
2023/06/16 00:38:52;;;;;;;14.48;4.68;;;;;;;17.41;100.00;101398.06;4953398;28;20047;-71
2023/06/16 00:41:19;;;;;;;9.57;4.57;;;;;;;17.37;100.00;101400.19;4943899;28;20572;-68
2023/06/16 00:43:45;;;;;;;12.77;4.75;;;;;;;17.32;100.00;101397.94;4951351;28;20082;-71
2023/06/16 00:46:27;;;;;;;12.90;4.70;;;;;;;17.19;100.00;101400.72;4944436;28;20505;-72
2023/06/16 00:48:56;;;;;;;10.32;4.10;;;;;;;17.10;100.00;101397.75;4950770;28;20048;-68
2023/06/16 00:51:26;;;;;;;11.13;4.30;;;;;;;17.03;100.00;101392.34;4955040;28;20082;-71
2023/06/16 00:53:54;;;;;;;10.13;4.13;;;;;;;17.00;100.00;101393.25;4951190;28;20083;-71
2023/06/16 00:56:26;;;;;;;12.77;5.20;;;;;;;16.95;100.00;101387.38;4950492;28;20513;-69
2023/06/16 00:58:53;;;;;;;10.55;4.45;;;;;;;16.90;100.00;101385.91;4945833;28;20526;-71
2023/06/16 01:01:31;;;;;;;13.40;5.10;;;;;;;16.84;100.00;101393.28;4952421;28;20509;-69
2023/06/16 01:04:01;;;;;;;12.57;4.78;;;;;;;16.77;100.00;101385.06;4948024;28;20486;-70
2023/06/16 01:06:36;;;;;;;11.50;4.72;;;;;;;16.72;100.00;101391.25;4948356;28;20051;-71
2023/06/16 01:09:06;;;;;;;;;;;;;;;16.70;100.00;101392.91;4953141;28;20570;-70
2023/06/16 01:11:49;;;;;;;8.20;4.10;;;;;;;16.62;100.00;101389.53;4956730;28;19933;-69
2023/06/16 01:14:39;;;;;;;10.57;4.47;;;;;;;16.54;100.00;101393.72;4954810;28;20054;-69
2023/06/16 01:17:08;;;;;;;12.40;4.60;;;;;;;16.46;100.00;101389.56;4952324;28;20143;-70
2023/06/16 01:19:43;;;;;;;11.70;4.50;;;;;;;16.42;100.00;101394.47;4950969;28;20046;-69
2023/06/16 01:22:20;;;;;;;10.48;4.40;;;;;;;16.35;100.00;101385.44;4935705;28;20071;-71
2023/06/16 01:24:48;;;;;;;11.68;4.82;;;;;;;16.35;100.00;101397.47;4945430;28;20123;-72
2023/06/16 01:27:21;;;;;;;10.55;4.40;;;;;;;16.29;100.00;101393.63;4945910;28;20065;-70
2023/06/16 01:29:53;;;;;;;12.20;4.78;;;;;;;16.26;100.00;101393.69;4956426;28;20202;-68
2023/06/16 01:32:21;;;;;;;10.38;5.28;;;;;;;16.21;100.00;101389.41;4951347;28;20198;-70
2023/06/16 01:34:48;;;;;;;11.30;4.47;;;;;;;16.15;100.00;101388.34;4947724;28;20055;-69
2023/06/16 01:37:16;;;;;;;12.90;5.47;;;;;;;16.14;100.00;101400.00;4949097;28;20059;-70
2023/06/16 01:39:44;;;;;;;13.57;5.60;;;;;;;16.13;100.00;101393.59;4949550;28;20142;-68
2023/06/16 01:42:19;;;;;;;10.75;4.78;;;;;;;16.12;100.00;101394.84;4941831;28;20083;-69
2023/06/16 01:44:49;;;;;;;11.82;4.50;;;;;;;16.16;100.00;101384.31;4943126;28;20138;-72
2023/06/16 01:47:15;;;;;;;9.98;4.53;;;;;;;16.17;100.00;101385.09;4964992;28;20109;-68
2023/06/16 01:49:43;;;;;;;9.20;4.35;;;;;;;16.16;100.00;101383.50;4931173;28;20047;-70
2023/06/16 01:52:09;;;;;;;10.50;5.10;;;;;;;16.15;100.00;101373.53;4943363;28;20588;-73
2023/06/16 01:54:39;;;;;;;13.45;5.70;;;;;;;16.13;100.00;101384.41;4956104;28;20425;-71
2023/06/16 01:57:06;;;;;;;10.73;4.60;;;;;;;16.14;100.00;101378.34;4939235;28;20055;-69
2023/06/16 01:59:33;;;;;;;9.50;4.50;;;;;;;16.13;100.00;101371.16;4954082;28;20054;-70
2023/06/16 02:02:07;;;;;;;10.73;4.65;;;;;;;16.13;100.00;101373.97;4948452;28;20596;-70
2023/06/16 02:04:38;;;;;;;10.00;5.15;;;;;;;16.12;100.00;101383.63;4950085;28;20134;-72
2023/06/16 02:07:10;;;;;;;10.93;4.93;;;;;;;16.08;100.00;101374.50;4949162;28;20047;-72
2023/06/16 02:09:38;;;;;;;10.77;5.13;;;;;;;16.05;100.00;101372.56;4936955;28;20056;-71
2023/06/16 02:12:07;;;;;;;11.50;4.80;;;;;;;16.03;100.00;101379.84;4950447;28;20048;-74
2023/06/16 02:14:34;;;;;;;19.00;5.55;;;;;;;15.98;100.00;101372.75;4938206;28;20438;-69
2023/06/16 02:17:05;;;;;;;12.63;5.43;;;;;;;15.99;100.00;101377.13;4944463;28;20048;-70
2023/06/16 02:19:32;;;;;;;11.65;5.13;;;;;;;15.93;100.00;101376.06;4944528;28;20125;-71
2023/06/16 02:22:00;;;;;;;9.65;5.22;;;;;;;15.96;100.00;101386.41;4949813;28;20057;-71
2023/06/16 02:24:27;;;;;;;11.23;5.32;;;;;;;15.93;100.00;101384.50;4948924;28;20711;-69
2023/06/16 02:26:53;;;;;;;11.80;4.90;;;;;;;15.89;100.00;101386.59;4947101;28;20053;-71
2023/06/16 02:29:20;;;;;;;11.23;4.80;;;;;;;15.82;100.00;101378.34;4939296;28;20047;-69
2023/06/16 02:31:48;;;;;;;10.38;5.20;;;;;;;15.76;100.00;101388.50;4930858;28;20043;-72
2023/06/16 02:34:15;;;;;;;12.27;5.15;;;;;;;15.67;100.00;101374.34;4930879;28;20066;-71
2023/06/16 02:36:43;;;;;;;13.60;5.03;;;;;;;15.62;100.00;101383.25;4949750;28;20149;-71
2023/06/16 02:39:10;;;;;;;10.07;4.53;;;;;;;15.58;100.00;101384.53;4948081;28;20066;-71
2023/06/16 02:41:37;;;;;;;12.25;4.75;;;;;;;15.50;100.00;101378.34;4938304;28;20059;-70
2023/06/16 02:44:03;;;;;;;16.60;5.15;;;;;;;15.43;100.00;101384.13;4944843;28;20139;-72
2023/06/16 02:46:30;;;;;;;13.00;4.60;;;;;;;15.36;100.00;101380.66;4948955;28;20141;-71
2023/06/16 02:48:56;;;;;;;11.75;4.80;;;;;;;15.32;100.00;101383.50;4943935;28;20052;-70
2023/06/16 02:51:23;;;;;;;13.05;5.10;;;;;;;15.28;100.00;101390.41;4952116;28;20155;-71
2023/06/16 02:53:50;;;;;;;14.82;5.53;;;;;;;15.24;100.00;101379.28;4930326;28;20043;-72
2023/06/16 02:56:16;;;;;;;10.50;5.00;;;;;;;15.20;100.00;101375.00;4935793;28;20134;-70
2023/06/16 02:58:43;;;;;;;11.73;5.03;;;;;;;15.15;100.00;101376.28;4941681;28;20047;-71
2023/06/16 03:01:11;;;;;;;14.23;5.13;;;;;;;15.08;100.00;101378.47;4939800;28;20064;-72
2023/06/16 03:03:38;;;;;;;8.88;4.60;;;;;;;15.07;100.00;101379.66;4942074;28;20047;-71
2023/06/16 03:06:05;;;;;;;11.75;5.30;;;;;;;15.01;100.00;101382.19;4947807;29;20050;-71
2023/06/16 03:08:32;;;;;;;15.15;4.93;;;;;;;14.95;100.00;101384.72;4946262;28;20110;-70
2023/06/16 03:10:58;;;;;;;11.82;4.72;;;;;;;14.92;100.00;101385.56;4947897;28;20454;-71
2023/06/16 03:13:25;;;;;;;8.63;4.40;;;;;;;14.92;100.00;101381.97;4947644;28;20098;-72
2023/06/16 03:15:52;;;;;;;11.40;4.88;;;;;;;14.90;100.00;101387.22;4943085;28;20832;-70
2023/06/16 03:18:19;;;;;;;12.15;5.50;;;;;;;14.88;100.00;101393.25;4939107;28;20537;-70
2023/06/16 03:20:47;;;;;;;11.73;5.43;;;;;;;14.84;100.00;101386.94;4947419;28;20113;-70
2023/06/16 03:23:14;;;;;;;10.73;5.60;;;;;;;14.83;100.00;101384.56;4948192;28;20462;-68
2023/06/16 03:25:41;;;;;;;12.43;5.38;;;;;;;14.78;100.00;101382.25;4948485;28;20577;-70
2023/06/16 03:28:07;;;;;;;13.55;5.75;;;;;;;14.75;100.00;101377.53;4950565;28;20051;-72
2023/06/16 03:30:34;;;;;;;13.45;5.55;;;;;;;14.72;100.00;101376.38;4938978;28;20142;-70
2023/06/16 03:33:01;;;;;;;14.77;5.53;;;;;;;14.70;100.00;101369.63;4949359;28;20133;-70
2023/06/16 03:35:27;;;;;;;14.27;5.30;;;;;;;14.66;100.00;101374.53;4950099;28;20051;-70
2023/06/16 03:37:54;;;;;;;13.98;5.85;;;;;;;14.64;100.00;101379.75;4947804;28;20086;-70
2023/06/16 03:40:20;;;;;;;25.35;6.43;;;;;;;14.62;100.00;101371.78;4950914;28;20116;-68
2023/06/16 03:42:47;;;;;;;14.38;5.85;;;;;;;14.64;100.00;101382.53;4951747;29;20051;-72
2023/06/16 03:45:13;;;;;;;13.15;6.68;;;;;;;14.63;100.00;101375.38;4951005;28;20146;-70
2023/06/16 03:47:40;;;;;;;10.90;4.85;;;;;;;14.67;100.00;101385.28;4952993;28;20081;-68
2023/06/16 03:50:07;;;;;;;10.13;5.15;;;;;;;14.63;100.00;101387.38;4952947;28;20051;-70
2023/06/16 03:52:33;;;;;;;12.93;5.28;;;;;;;14.56;100.00;101387.47;4951733;28;20114;-71
2023/06/16 03:55:00;;;;;;;12.02;5.30;;;;;;;14.57;100.00;101379.88;4946216;28;20506;-68
2023/06/16 03:57:26;;;;;;;10.38;4.78;;;;;;;14.61;100.00;101392.59;4952527;28;20070;-69
2023/06/16 03:59:53;;;;;;;13.63;5.15;;;;;;;14.63;100.00;101387.38;4953922;28;20070;-69
2023/06/16 04:02:20;;;;;;;14.77;5.20;;;;;;;14.63;100.00;101392.16;4934439;28;20055;-72
2023/06/16 04:04:47;;;;;;;10.35;4.55;;;;;;;14.65;100.00;101395.34;4942831;28;20044;-71
2023/06/16 04:07:14;;;;;;;12.45;5.78;;;;;;;14.69;100.00;101396.06;4947246;28;20062;-71
2023/06/16 04:09:40;;;;;;;12.05;5.03;;;;;;;14.68;100.00;101392.47;4945228;28;20126;-70
2023/06/16 04:12:07;;;;;;;14.82;6.13;;;;;;;14.70;100.00;101389.22;4952466;28;20167;-71
2023/06/16 04:14:34;;;;;;;12.88;5.43;;;;;;;14.72;100.00;101386.81;4960358;28;20373;-70
2023/06/16 04:17:01;;;;;;;12.23;5.50;;;;;;;14.76;100.00;101390.31;4952285;28;20131;-70
2023/06/16 04:19:28;;;;;;;13.40;5.32;;;;;;;14.78;100.00;101390.66;4943902;28;20055;-72
2023/06/16 04:21:55;;;;;;;17.17;6.47;;;;;;;14.79;100.00;101387.44;4950784;28;20058;-72
2023/06/16 04:24:21;;;;;;;18.40;5.97;;;;;;;14.83;100.00;101384.56;4950137;28;20059;-69
2023/06/16 04:26:49;;;;;;;11.20;5.13;;;;;;;14.83;100.00;101390.94;4943772;28;20056;-72
2023/06/16 04:29:15;;;;;;;11.23;5.80;;;;;;;14.84;100.00;101388.94;4980186;28;20055;-70
2023/06/16 04:31:42;;;;;;;13.73;6.05;;;;;;;14.88;100.00;101389.66;4952151;28;20125;-71
2023/06/16 04:34:10;;;;;;;12.18;5.75;;;;;;;14.91;100.00;101381.19;4948788;28;20110;-70
2023/06/16 04:36:44;;;;;;;14.93;6.10;;;;;;;14.99;100.00;101384.66;4944060;28;20058;-70
2023/06/16 04:39:11;;;;;;;13.77;5.90;;;;;;;15.06;100.00;101384.50;4943469;28;20532;-70
2023/06/16 04:41:38;;;;;;;19.30;6.72;;;;;;;15.12;100.00;101381.97;4944241;28;20051;-70
2023/06/16 04:44:04;;;;;;;17.38;6.20;;;;;;;15.19;100.00;101387.41;4951468;28;20039;-70
2023/06/16 04:46:31;;;;;;;11.20;5.00;;;;;;;15.25;100.00;101385.69;4937415;28;20807;-70
2023/06/16 04:48:58;;;;;;;13.13;5.80;;;;;;;15.28;100.00;101379.19;4940256;28;20057;-72
2023/06/16 04:51:26;;;;;;;14.68;5.65;;;;;;;15.34;100.00;101383.06;4943415;28;20598;-71
2023/06/16 04:53:53;;;;;;;15.20;5.63;;;;;;;15.44;100.00;101379.28;4951150;28;20158;-73
2023/06/16 04:56:19;;;;;;;12.50;5.22;;;;;;;15.53;100.00;101374.63;4944803;28;20102;-70
2023/06/16 04:58:46;;;;;;;15.88;5.78;;;;;;;15.66;100.00;101383.94;4943979;28;20581;-71
2023/06/16 05:01:13;;;;;;;14.93;5.65;;;;;;;15.76;100.00;101382.13;4951376;28;20063;-71
2023/06/16 05:03:39;;;;;;;14.30;6.25;;;;;;;15.88;100.00;101385.03;4951718;28;20571;-71
2023/06/16 05:06:06;;;;;;;11.23;5.60;;;;;;;15.98;100.00;101383.19;4950661;28;20593;-71
2023/06/16 05:08:33;;;;;;;13.40;5.55;;;;;;;16.10;100.00;101374.06;4950084;28;20044;-71
2023/06/16 05:11:01;;;;;;;15.20;5.75;;;;;;;16.22;100.00;101381.75;4951761;28;20079;-70
2023/06/16 05:13:30;;;;;;;15.27;6.00;;;;;;;16.32;100.00;101378.72;4947247;28;20079;-71
2023/06/16 05:15:56;;;;;;;15.05;5.68;;;;;;;16.42;100.00;101379.66;4949846;28;20058;-70
2023/06/16 05:18:23;;;;;;;14.25;5.50;;;;;;;16.53;100.00;101377.34;4950349;28;20051;-71
2023/06/16 05:20:49;;;;;;;15.45;5.88;;;;;;;16.63;100.00;101376.25;4943364;28;20588;-71
2023/06/16 05:23:16;;;;;;;13.90;6.30;;;;;;;16.73;100.00;101383.59;4957271;28;20082;-70
2023/06/16 05:25:43;;;;;;;15.45;5.53;;;;;;;16.83;100.00;101386.09;4947745;28;20074;-71
2023/06/16 05:28:09;;;;;;;13.30;6.10;;;;;;;16.92;100.00;101380.63;4954142;28;20094;-70
2023/06/16 05:30:36;;;;;;;14.18;5.57;;;;;;;17.02;100.00;101384.38;4943354;28;20533;-71
2023/06/16 05:33:02;;;;;;;14.30;6.55;;;;;;;17.11;100.00;101387.31;4943426;28;20067;-72
2023/06/16 05:35:29;;;;;;;10.35;5.00;;;;;;;17.18;100.00;101393.53;4951459;28;20056;-70
2023/06/16 05:37:56;;;;;;;12.18;5.55;;;;;;;17.28;100.00;101386.81;4946253;28;20052;-71
2023/06/16 05:40:22;;;;;;;13.40;6.05;;;;;;;17.36;100.00;101390.19;4949334;28;20062;-71
2023/06/16 05:42:49;;;;;;;14.13;5.35;;;;;;;17.43;100.00;101387.94;4951961;28;20054;-70
2023/06/16 05:45:15;;;;;;;15.25;5.75;;;;;;;17.51;100.00;101385.69;4950144;28;20474;-73
2023/06/16 05:47:42;;;;;;;16.92;6.10;;;;;;;17.62;100.00;101382.56;4950966;28;20142;-68
2023/06/16 05:50:09;;;;;;;13.25;6.15;;;;;;;17.68;100.00;101373.09;4958664;28;20106;-70
2023/06/16 05:52:37;;;;;;;11.15;5.05;;;;;;;17.76;100.00;101376.47;4949521;28;20079;-70
2023/06/16 05:55:04;;;;;;;13.52;5.20;;;;;;;17.85;100.00;101373.78;4950159;28;20051;-69
2023/06/16 05:57:31;;;;;;;15.07;6.03;;;;;;;17.94;100.00;101374.69;4947132;28;20055;-69
2023/06/16 05:59:59;;;;;;;14.40;5.85;;;;;;;18.03;100.00;101382.44;4950175;28;20052;-72
2023/06/16 06:02:26;;;;;;;11.57;5.65;;;;;;;18.10;100.00;101385.00;4952351;28;20051;-69
2023/06/16 06:04:53;;;;;;;12.02;5.00;;;;;;;18.19;100.00;101380.25;4944348;28;20105;-72
2023/06/16 06:07:19;;;;;;;12.20;4.93;;;;;;;18.27;100.00;101383.63;4947826;28;20059;-70
2023/06/16 06:09:46;;;;;;;12.27;5.13;;;;;;;18.37;100.00;101377.63;4937319;28;20573;-69
2023/06/16 06:12:13;;;;;;;13.48;5.70;;;;;;;18.40;100.00;101381.56;4941111;28;20510;-75
2023/06/16 06:14:39;;;;;;;16.33;5.63;;;;;;;18.46;100.00;101391.75;4951880;28;20054;-71
2023/06/16 06:17:06;;;;;;;12.75;5.15;;;;;;;18.52;100.00;101383.53;4953070;28;20051;-72
2023/06/16 06:19:32;;;;;;;12.65;6.63;;;;;;;18.61;100.00;101392.84;4935930;28;20114;-74
2023/06/16 06:21:59;;;;;;;11.00;4.88;;;;;;;18.71;100.00;101396.53;4943674;28;20502;-73
2023/06/16 06:24:25;;;;;;;14.02;5.93;;;;;;;18.83;100.00;101395.69;4948510;28;20512;-73
2023/06/16 06:26:52;;;;;;;13.23;5.20;;;;;;;18.87;100.00;101397.13;4939307;28;20138;-72
2023/06/16 06:29:19;;;;;;;14.65;5.18;;;;;;;18.95;100.00;101400.50;4947985;28;20102;-71
2023/06/16 06:31:45;;;;;;;9.90;4.82;;;;;;;19.02;100.00;101403.84;4941359;28;20051;-74
2023/06/16 06:34:12;;;;;;;14.38;5.25;;;;;;;19.11;100.00;101405.94;4948587;28;20047;-74
2023/06/16 06:36:42;;;;;;;11.48;4.90;;;;;;;19.15;100.00;101404.56;4942261;28;20098;-71
2023/06/16 06:39:08;;;;;;;11.98;5.15;;;;;;;19.20;100.00;101403.16;4949723;28;20430;-72
2023/06/16 06:41:35;;;;;;;11.10;5.10;;;;;;;19.30;100.00;101411.22;4947590;28;20466;-72
2023/06/16 06:44:02;;;;;;;10.52;4.63;;;;;;;19.39;100.00;101414.09;4943149;28;20099;-75
2023/06/16 06:46:28;;;;;;;9.52;4.80;;;;;;;19.45;100.00;101420.69;4939504;28;20117;-72
2023/06/16 06:48:55;;;;;;;13.20;4.80;;;;;;;19.49;100.00;101410.09;4944638;28;20134;-73
2023/06/16 06:51:22;;;;;;;13.10;5.57;;;;;;;19.54;99.83;101415.13;4946369;28;20051;-72
2023/06/16 06:53:48;;;;;;;10.65;5.00;;;;;;;19.58;98.99;101418.59;4951041;28;20134;-74
2023/06/16 06:56:16;;;;;;;11.68;4.72;;;;;;;19.42;96.10;101415.19;4951712;28;20517;-70
2023/06/16 06:58:42;;;;;;;10.73;4.70;;;;;;;19.44;97.27;101421.13;4949331;28;20097;-75
2023/06/16 07:01:09;;;;;;;11.25;4.97;;;;;;;19.53;96.86;101418.41;4948107;28;20047;-73
2023/06/16 07:03:36;;;;;;;11.30;4.68;;;;;;;19.51;91.18;101420.91;4942824;28;20130;-70
2023/06/16 07:06:02;;;;;;;10.85;4.70;;;;;;;19.56;94.28;101420.31;4941840;28;20592;-71
2023/06/16 07:08:29;;;;;;;10.00;4.90;;;;;;;19.67;94.67;101415.03;4931565;28;20059;-69
2023/06/16 07:10:56;;;;;;;12.38;4.82;;;;;;;19.78;92.60;101424.63;4930023;29;20391;-68
2023/06/16 07:13:22;;;;;;;11.07;4.60;;;;;;;19.85;89.63;101423.56;4938073;28;20647;-70
2023/06/16 07:15:49;;;;;;;11.20;5.05;;;;;;;19.97;92.35;101428.31;4942970;28;20129;-68
2023/06/16 07:18:16;;;;;;;9.32;5.13;;;;;;;20.08;92.30;101431.47;4947765;28;20062;-69
2023/06/16 07:20:42;;;;;;;8.35;4.68;;;;;;;20.19;90.56;101425.41;4948779;28;20047;-69
2023/06/16 07:23:09;;;;;;;13.05;4.60;;;;;;;20.28;87.29;101420.56;4949647;28;20375;-69
2023/06/16 07:25:38;;;;;;;10.18;4.93;;;;;;;20.37;81.73;101429.06;4940735;28;20074;-69
2023/06/16 07:28:06;;;;;;;13.75;4.60;;;;;;;20.46;82.31;101425.47;4941642;28;20079;-70
2023/06/16 07:30:33;;;;;;;9.45;3.88;;;;;;;20.49;76.38;101433.00;4946332;28;20055;-69
2023/06/16 07:32:59;;;;;;;10.88;4.65;;;;;;;20.59;79.43;101435.38;4946830;28;20110;-68
2023/06/16 07:35:26;;;;;;;13.27;4.78;;;;;;;20.72;80.07;101435.25;4947773;28;20051;-69
2023/06/16 07:37:52;;;;;;;12.25;4.95;;;;;;;20.83;78.83;101436.31;4948680;28;20055;-71
2023/06/16 07:40:20;;;;;;;13.90;4.38;;;;;;;20.93;79.16;101429.44;4948722;28;20042;-71
2023/06/16 07:42:48;;;;;;;10.77;4.75;;;;;;;21.06;79.52;101438.53;4948375;28;20547;-71
2023/06/16 07:45:17;;;;;;;12.15;4.28;;;;;;;21.18;77.31;101437.59;4947418;28;20117;-69
2023/06/16 07:47:48;;;;;;;8.80;3.93;;;;;;;21.27;72.47;101433.97;4945934;28;20054;-68
2023/06/16 07:50:16;;;;;;;7.10;4.10;;;;;;;21.35;71.99;101432.34;4953122;28;20051;-70
2023/06/16 07:52:43;;;;;;;8.43;4.40;;;;;;;21.43;71.69;101430.78;4950004;28;20063;-69
2023/06/16 07:55:12;;;;;;;9.15;4.10;;;;;;;21.47;63.56;101426.50;4931381;28;20489;-70
2023/06/16 07:57:39;;;;;;;9.57;4.20;;;;;;;21.48;58.65;101428.09;4948284;28;20102;-68
2023/06/16 08:00:11;;;;;;;9.18;4.22;;;;;;;21.52;58.88;101425.06;4951512;28;20070;-68
2023/06/16 08:02:47;;;;;;;8.82;3.90;;;;;;;21.56;57.77;101431.34;4945439;28;20051;-68
2023/06/16 08:05:16;;;;;;;12.38;4.10;;;;;;;21.65;55.55;101423.66;4941262;28;20059;-69
2023/06/16 08:07:43;;;;;;;11.20;4.45;;;;;;;21.80;55.62;101429.41;4943045;28;20054;-69
2023/06/16 08:10:10;;;;;;;7.82;3.88;;;;;;;21.94;54.75;101423.06;4940793;28;20043;-67
2023/06/16 08:12:41;;;;;;;11.93;3.90;;;;;;;22.02;51.99;101425.06;4937858;28;20131;-70
2023/06/16 08:15:08;;;;;;;8.48;4.00;;;;;;;22.13;53.18;101425.31;4944811;28;20095;-69
2023/06/16 08:17:35;;;;;;;9.07;3.88;;;;;;;22.30;53.74;101422.06;4940413;28;20173;-71
2023/06/16 08:20:03;;;;;;;12.18;3.95;;;;;;;22.24;47.02;101418.34;4948222;28;20050;-69
2023/06/16 08:22:30;;;;;;;11.23;4.15;;;;;;;22.25;47.86;101426.34;4946577;28;20161;-71
2023/06/16 08:24:57;;;;;;;10.50;4.03;;;;;;;22.32;48.74;101420.34;4952060;28;20422;-71
2023/06/16 08:27:25;;;;;;;7.53;3.85;;;;;;;22.29;48.37;101426.16;4949407;28;20059;-69
2023/06/16 08:29:52;;;;;;;7.32;3.65;;;;;;;22.48;50.49;101414.25;4948823;28;20743;-71
2023/06/16 08:32:18;;;;;;;8.02;3.80;;;;;;;22.62;48.50;101415.56;4950398;28;20067;-69
2023/06/16 08:34:45;;;;;;;12.63;4.07;;;;;;;22.66;49.24;101405.63;4944506;28;20078;-71
2023/06/16 08:37:11;;;;;;;8.88;3.60;;;;;;;22.71;48.82;101402.09;4951681;28;20051;-69
2023/06/16 08:39:56;;;;;;;8.00;3.80;;;;;;;22.77;47.25;101410.72;4942990;28;20046;-69
2023/06/16 08:42:23;;;;;;;8.90;4.10;;;;;;;22.81;46.91;101408.50;4943461;28;20533;-68
2023/06/16 08:44:51;;;;;;;9.05;4.18;;;;;;;22.91;48.46;101407.13;4946917;28;20130;-68
2023/06/16 08:47:18;;;;;;;10.55;4.53;;;;;;;23.04;46.83;101416.94;4950273;28;20051;-69
2023/06/16 08:49:46;;;;;;;13.52;4.90;;;;;;;23.18;46.93;101406.88;4946156;28;20054;-70
2023/06/16 08:52:16;;;;;;;8.50;4.30;;;;;;;23.27;46.65;101401.13;4950247;28;20129;-71
2023/06/16 08:54:57;;;;;;;18.27;4.28;;;;;;;23.36;46.43;101401.78;4950767;28;20055;-69
2023/06/16 08:57:26;;;;;;;10.35;4.45;;;;;;;23.34;46.79;101395.84;4947775;28;20055;-69
2023/06/16 08:59:56;;;;;;;9.63;3.95;;;;;;;23.49;47.15;101404.34;4940137;28;20059;-69
2023/06/16 09:02:23;;;;;;;13.15;4.03;;;;;;;23.55;46.35;101402.38;4932461;28;20083;-70
2023/06/16 09:04:50;;;;;;;11.02;4.80;;;;;;;23.69;46.02;101402.38;4942793;28;20097;-69
2023/06/16 09:07:19;;;;;;;8.70;3.72;;;;;;;23.83;47.39;101393.03;4948818;28;20481;-69
2023/06/16 09:09:46;;;;;;;10.63;4.30;;;;;;;24.01;47.64;101409.06;4942698;28;20079;-71
2023/06/16 09:12:12;;;;;;;12.43;3.97;;;;;;;24.09;48.33;101398.84;4946369;28;20051;-69
2023/06/16 09:14:41;;;;;;;8.52;3.97;;;;;;;24.09;47.03;101410.19;4954904;28;20079;-66
2023/06/16 09:17:09;;;;;;;12.50;4.68;;;;;;;23.94;47.27;101406.63;4943975;28;20526;-72
2023/06/16 09:19:47;;;;;;;8.02;4.20;;;;;;;23.98;47.09;101402.31;4934530;28;20557;-68
2023/06/16 09:22:18;;;;;;;10.13;4.05;;;;;;;24.07;47.37;101399.31;4957936;28;20730;-68
2023/06/16 09:25:01;;;;;;;13.38;4.43;;;;;;;24.17;47.75;101403.59;4950939;28;20058;-67
2023/06/16 09:27:45;;;;;;;9.82;3.95;;;;;;;24.33;46.41;101402.28;4943589;28;20094;-71
2023/06/16 09:30:13;;;;;;;7.60;3.75;;;;;;;24.44;47.92;101403.22;4944190;28;20110;-70
2023/06/16 09:32:40;;;;;;;10.30;3.67;;;;;;;24.23;45.22;101401.66;4943025;28;20075;-71
2023/06/16 09:35:16;;;;;;;9.85;4.28;;;;;;;24.19;45.15;101406.75;4941665;28;20050;-68
2023/06/16 09:37:43;;;;;;;11.40;4.07;;;;;;;24.36;46.10;101404.16;4941292;28;20054;-71
2023/06/16 09:40:10;;;;;;;8.68;4.20;;;;;;;24.55;44.42;101393.28;4940801;28;20051;-68
2023/06/16 09:42:40;;;;;;;9.68;3.85;;;;;;;24.56;44.19;101397.69;4945822;28;20126;-70
2023/06/16 09:45:09;;;;;;;7.35;3.97;;;;;;;24.53;43.75;101390.16;4935298;28;20145;-70
2023/06/16 09:47:38;;;;;;;8.35;4.32;;;;;;;24.65;42.72;101381.25;4928906;28;20057;-71
2023/06/16 09:50:06;;;;;;;10.52;4.10;;;;;;;24.76;43.45;101387.06;4928643;28;20533;-72
2023/06/16 09:52:36;;;;;;;8.63;3.85;;;;;;;24.80;42.23;101384.78;4927614;28;20051;-71
2023/06/16 09:55:08;;;;;;;12.00;4.25;;;;;;;24.91;43.01;101378.47;4931465;28;20052;-72
2023/06/16 09:57:43;;;;;;;8.05;3.97;;;;;;;24.99;43.10;101388.91;4930055;28;20059;-69
2023/06/16 10:00:17;;;;;;;10.82;4.60;;;;;;;25.10;41.71;101383.31;4929008;28;20055;-70
2023/06/16 10:02:46;;;;;;;12.13;4.45;;;;;;;25.30;42.38;101391.78;4928991;28;20103;-71
2023/06/16 10:05:18;;;;;;;12.15;4.55;;;;;;;25.41;42.25;101383.34;4936822;28;20403;-68
2023/06/16 10:07:48;;;;;;;8.73;4.30;;;;;;;25.50;41.72;101383.19;4942011;28;20051;-70
2023/06/16 10:10:16;;;;;;;9.07;3.92;;;;;;;25.57;41.55;101388.41;4938938;28;20047;-67
2023/06/16 10:12:48;;;;;;;9.63;4.45;;;;;;;25.68;42.30;101379.94;4946248;28;20083;-71
2023/06/16 10:15:26;;;;;;;10.80;4.45;;;;;;;25.80;41.41;101384.44;4955003;28;20062;-69
2023/06/16 10:18:02;;;;;;;10.45;4.50;;;;;;;26.04;41.72;101384.09;4945913;28;20055;-69
2023/06/16 10:20:37;;;;;;;8.07;3.58;;;;;;;25.92;39.75;101380.38;4940993;28;20051;-69
2023/06/16 10:23:04;;;;;;;18.15;4.63;;;;;;;25.83;40.36;101366.34;4951102;28;20146;-69
2023/06/16 10:25:38;;;;;;;12.05;5.10;;;;;;;25.85;40.11;101372.31;4939092;28;20063;-69
2023/06/16 10:28:10;;;;;;;11.15;4.43;;;;;;;26.04;40.99;101376.34;4947165;28;20099;-70
2023/06/16 10:30:38;;;;;;;13.07;4.75;;;;;;;26.18;40.01;101372.53;4943937;28;20043;-72
2023/06/16 10:33:20;;;;;;;13.05;4.72;;;;;;;26.21;39.77;101368.66;4951052;28;20390;-69
2023/06/16 10:35:56;;;;;;;7.32;4.03;;;;;;;26.42;39.17;101377.81;4941718;28;20074;-69
2023/06/16 10:38:42;;;;;;;13.05;4.43;;;;;;;26.48;39.50;101370.06;4947940;28;20043;-70
2023/06/16 10:41:14;;;;;;;13.77;4.25;;;;;;;26.38;38.33;101365.88;4941533;28;20052;-68
2023/06/16 10:43:42;;;;;;;12.40;4.57;;;;;;;26.42;39.22;101367.19;4947421;28;20073;-69
2023/06/16 10:46:20;;;;;;;7.72;4.15;;;;;;;26.61;39.64;101359.78;4954231;28;20158;-71
2023/06/16 10:48:56;;;;;;;9.05;4.38;;;;;;;26.71;39.23;101351.75;4942900;28;20418;-69
2023/06/16 10:51:43;;;;;;;11.93;4.93;;;;;;;26.84;40.15;101366.31;4946867;28;20062;-69
2023/06/16 10:54:10;;;;;;;21.05;5.10;;;;;;;26.77;38.01;101363.19;4940925;28;20451;-70
2023/06/16 10:57:04;;;;;;;12.20;5.40;;;;;;;26.64;38.76;101358.75;4942105;28;20075;-69
2023/06/16 10:59:52;;;;;;;10.02;4.35;;;;;;;26.86;38.24;101354.38;4942800;28;20158;-70
2023/06/16 11:02:30;;;;;;;10.57;4.60;;;;;;;27.07;38.00;101350.00;4943306;28;20122;-69
2023/06/16 11:05:12;;;;;;;11.50;4.88;;;;;;;27.21;36.73;101346.94;4949179;28;20047;-68
2023/06/16 11:07:46;;;;;;;9.80;4.57;;;;;;;27.48;37.07;101356.78;4950604;28;20071;-71
2023/06/16 11:10:18;;;;;;;9.95;4.75;;;;;;;27.67;36.71;101352.09;4949089;28;20059;-75
2023/06/16 11:12:45;;;;;;;10.48;4.65;;;;;;;27.70;36.08;101345.31;4964473;28;20062;-75
2023/06/16 11:15:12;;;;;;;8.27;4.10;;;;;;;27.78;37.17;101332.09;4944376;28;20142;-74
2023/06/16 11:17:42;;;;;;;7.22;4.10;;;;;;;28.01;36.98;101353.59;4949310;28;20521;-73
2023/06/16 11:20:09;;;;;;;11.75;4.30;;;;;;;28.09;34.55;101351.75;4950327;28;20529;-73
2023/06/16 11:22:37;;;;;;;12.05;4.55;;;;;;;28.26;34.68;101346.78;4950654;28;20425;-70